Time;durP1;ratioP1;P1;durP2;ratioP2;P2;SDS_P1;SDS_P2;PMS_P1;PMS_P2;Temp;Humidity;BMP_temperature;BMP_pressure;BME280_temperature;BME280_humidity;BME280_pressure;Samples;Min_cycle;Max_cycle;Signal;HPM_P1;HPM_P2
2023/08/27 00:01:40;;;;;;;10.50;3.22;;;17.60;99.90;;;18.11;68.84;100019.19;4995901;28;20126;-85
2023/08/27 00:04:08;;;;;;;5.78;2.90;;;17.60;99.90;;;18.09;69.00;100003.25;4975374;28;20120;-87
2023/08/27 00:06:35;;;;;;;6.97;2.58;;;17.50;99.90;;;18.07;68.79;99985.72;4995230;28;20418;-88
2023/08/27 00:09:02;;;;;;;6.07;2.78;;;17.50;99.90;;;18.07;68.96;99983.03;4978692;28;20149;-85
2023/08/27 00:11:30;;;;;;;11.80;3.22;;;17.50;99.90;;;18.07;68.83;99980.34;4994944;28;20463;-86
2023/08/27 00:13:57;;;;;;;5.22;2.72;;;17.50;99.90;;;18.06;68.74;99987.63;4996240;28;20049;-86
2023/08/27 00:16:24;;;;;;;7.13;3.17;;;17.50;99.90;;;18.04;68.90;99988.97;4979200;28;20096;-86
2023/08/27 00:18:53;;;;;;;8.77;3.50;;;17.40;99.90;;;18.02;68.59;99997.34;4978390;28;20445;-86
2023/08/27 00:21:20;;;;;;;8.55;3.60;;;17.50;99.90;;;18.00;68.42;99997.59;4978399;28;20070;-86
2023/08/27 00:23:47;;;;;;;5.70;3.20;;;17.40;99.90;;;17.98;68.66;99988.97;4978650;28;20040;-86
2023/08/27 00:26:14;;;;;;;5.95;3.28;;;17.40;99.90;;;17.99;69.06;99989.78;4995687;28;20135;-85
2023/08/27 00:28:43;;;;;;;5.85;3.22;;;17.40;99.90;;;17.97;68.86;99989.25;4978841;28;20133;-86
2023/08/27 00:31:11;;;;;;;8.85;3.20;;;17.40;99.90;;;17.94;68.95;99990.59;5000806;28;20046;-87
2023/08/27 00:33:38;;;;;;;8.13;3.72;;;17.40;99.90;;;17.96;69.01;99988.44;4973142;28;20050;-88
2023/08/27 00:36:07;;;;;;;6.30;4.03;;;17.40;99.90;;;17.96;68.98;99955.25;4995898;28;20096;-86
2023/08/27 00:38:35;;;;;;;5.30;3.42;;;17.40;99.90;;;17.95;68.99;99949.03;4977254;28;20042;-86
2023/08/27 00:41:02;;;;;;;7.63;3.22;;;17.40;99.90;;;17.92;69.14;99940.69;4978639;28;20053;-86
2023/08/27 00:43:29;;;;;;;7.22;3.78;;;17.30;99.90;;;17.88;69.09;99942.31;4994691;28;20097;-86
2023/08/27 00:45:57;;;;;;;9.32;3.35;;;17.30;99.90;;;17.85;69.17;99927.47;4983276;28;20487;-86
2023/08/27 00:48:25;;;;;;;5.45;3.10;;;17.30;99.90;;;17.85;68.86;99932.06;4994266;28;20069;-87
2023/08/27 00:50:52;;;;;;;9.20;3.92;;;17.30;99.90;;;17.84;69.12;99938.53;4973122;28;20050;-86
2023/08/27 00:53:21;;;;;;;9.35;3.65;;;17.20;99.90;;;17.83;69.09;99923.44;4975635;28;20137;-86
2023/08/27 00:55:51;;;;;;;6.43;3.40;;;17.20;99.90;;;17.82;69.30;99906.47;4984361;28;20038;-86
2023/08/27 00:58:19;;;;;;;8.00;3.70;;;17.20;99.90;;;17.80;68.91;99903.19;4989098;28;20583;-86
2023/08/27 01:00:46;;;;;;;8.23;3.88;;;17.20;99.90;;;17.80;69.08;99895.09;4989435;28;20035;-86
2023/08/27 01:03:14;;;;;;;6.68;3.58;;;17.20;99.90;;;17.81;68.67;99891.31;4976051;28;20093;-86
2023/08/27 01:05:42;;;;;;;5.05;3.00;;;17.20;99.90;;;17.77;68.83;99887.59;4987447;28;20068;-86
2023/08/27 01:08:20;;;;;;;12.45;3.75;;;17.20;99.90;;;17.74;68.38;99893.50;4976891;28;20550;-86
2023/08/27 01:10:58;;;;;;;7.60;3.65;;;17.10;99.90;;;17.71;68.83;99892.16;5002283;28;20051;-86
2023/08/27 01:13:37;;;;;;;6.50;3.35;;;17.10;99.90;;;17.66;68.55;99897.53;4994251;28;20048;-86
2023/08/27 01:16:07;;;;;;;7.25;3.80;;;17.10;99.90;;;17.62;68.67;99904.56;4975581;28;20050;-86
2023/08/27 01:18:36;;;;;;;6.90;3.55;;;17.00;99.90;;;17.61;68.59;99907.50;4959929;28;20051;-87
2023/08/27 01:21:21;;;;;;;7.03;3.70;;;17.00;99.90;;;17.60;68.42;99914.00;4978776;28;20141;-86
2023/08/27 01:23:49;;;;;;;5.75;3.65;;;16.90;99.90;;;17.57;68.38;99917.22;4987495;28;20054;-86
2023/08/27 01:26:26;;;;;;;8.40;3.55;;;16.90;99.90;;;17.54;68.37;99920.47;4994384;28;20077;-86
2023/08/27 01:29:01;;;;;;;8.13;3.65;;;16.90;99.90;;;17.50;68.36;99917.50;4976944;28;20056;-86
2023/08/27 01:31:40;;;;;;;11.80;3.65;;;16.90;99.90;;;17.48;68.73;99915.09;4963276;28;20531;-86
2023/08/27 01:34:10;;;;;;;8.50;3.60;;;16.90;99.90;;;17.46;68.72;99928.00;4981254;28;20471;-86
2023/08/27 01:36:40;;;;;;;7.35;3.30;;;16.80;99.90;;;17.42;68.27;99926.97;4986658;28;20399;-86
2023/08/27 01:39:12;;;;;;;9.00;3.20;;;16.80;99.90;;;17.37;68.27;99926.97;4980985;28;20054;-86
2023/08/27 01:41:39;;;;;;;6.88;3.35;;;16.80;99.90;;;17.33;68.30;99928.56;4980792;28;20073;-86
2023/08/27 01:44:07;;;;;;;5.20;3.08;;;16.70;99.90;;;17.32;68.11;99918.03;4991181;28;20070;-86
2023/08/27 01:46:34;;;;;;;8.30;3.58;;;16.70;99.90;;;17.30;68.44;99918.31;4971982;28;20497;-86
2023/08/27 01:49:01;;;;;;;6.22;3.00;;;16.70;99.90;;;17.27;68.00;99918.84;4953074;28;20049;-86
2023/08/27 01:51:30;;;;;;;8.52;3.28;;;16.60;99.90;;;17.27;68.50;99928.81;4993289;28;20484;-86
2023/08/27 01:53:58;;;;;;;8.02;3.03;;;16.70;99.90;;;17.24;67.89;99925.59;4971354;28;20074;-86
2023/08/27 01:56:25;;;;;;;6.47;3.28;;;16.60;99.90;;;17.21;68.37;99922.63;4992865;28;20093;-86
2023/08/27 01:58:53;;;;;;;8.25;3.15;;;16.60;99.90;;;17.20;68.16;99926.41;4989886;28;20133;-86
2023/08/27 02:01:20;;;;;;;6.68;3.13;;;16.60;99.90;;;17.19;67.96;99922.09;5006677;28;20084;-86
2023/08/27 02:03:48;;;;;;;7.07;3.17;;;16.60;99.90;;;17.17;68.13;99916.94;4993115;28;20598;-86
2023/08/27 02:06:15;;;;;;;8.93;3.50;;;16.60;99.90;;;17.15;68.15;99912.91;4977316;28;20038;-86
2023/08/27 02:08:42;;;;;;;7.32;3.00;;;16.50;99.90;;;17.13;68.25;99907.81;4992671;28;20112;-86
2023/08/27 02:11:11;;;;;;;4.72;2.88;;;16.50;99.90;;;17.12;67.98;99908.88;4977445;28;20051;-86
2023/08/27 02:13:38;;;;;;;6.20;3.00;;;16.50;99.90;;;17.12;67.77;99900.78;4979405;28;20038;-86
2023/08/27 02:16:05;;;;;;;6.28;3.10;;;16.50;99.90;;;17.10;67.58;99911.03;4983786;28;20050;-86
2023/08/27 02:18:33;;;;;;;7.25;3.28;;;16.50;99.90;;;17.10;67.76;99905.63;4976532;28;20034;-87
2023/08/27 02:21:01;;;;;;;7.35;3.15;;;16.50;99.90;;;17.08;67.53;99902.41;4976492;28;20133;-86
2023/08/27 02:23:29;;;;;;;6.70;3.17;;;16.40;99.90;;;17.05;67.69;99899.44;5000643;28;20042;-88
2023/08/27 02:25:56;;;;;;;6.85;3.33;;;16.40;99.90;;;17.05;67.86;99905.63;4991748;28;20046;-88
2023/08/27 02:28:26;;;;;;;5.85;3.47;;;16.40;99.90;;;17.08;67.93;99902.41;4993560;28;20042;-87
2023/08/27 02:30:55;;;;;;;8.52;3.30;;;16.50;99.90;;;17.07;67.92;99894.59;4964860;28;20624;-88
2023/08/27 02:33:23;;;;;;;5.50;3.10;;;16.40;99.90;;;17.05;68.14;99876.00;4992246;28;20042;-88
2023/08/27 02:35:50;;;;;;;7.85;3.22;;;16.40;99.90;;;17.00;68.15;99876.00;4975888;28;20418;-88
2023/08/27 02:38:19;;;;;;;7.57;3.45;;;16.40;99.90;;;16.96;68.17;99873.03;4984265;28;20451;-86
2023/08/27 02:40:46;;;;;;;6.00;3.22;;;16.40;99.90;;;16.94;68.33;99874.38;4992816;28;20062;-86
2023/08/27 02:43:14;;;;;;;6.93;3.38;;;16.30;99.90;;;16.91;68.23;99869.53;4976093;28;20043;-86
2023/08/27 02:45:43;;;;;;;7.32;3.30;;;16.30;99.90;;;16.90;68.54;99879.50;4984752;28;20042;-86
2023/08/27 02:48:10;;;;;;;8.68;3.55;;;16.30;99.90;;;16.87;68.55;99863.84;4975891;28;20050;-86
2023/08/27 02:50:38;;;;;;;6.53;2.95;;;16.30;99.90;;;16.85;68.58;99866.00;5002874;28;20050;-86
2023/08/27 02:53:05;;;;;;;7.20;3.17;;;16.30;99.90;;;16.85;68.34;99863.31;5002338;28;20050;-86
2023/08/27 02:55:33;;;;;;;5.63;3.42;;;16.20;99.90;;;16.84;68.43;99863.59;4980785;28;20042;-86
2023/08/27 02:58:00;;;;;;;7.25;2.88;;;16.20;99.90;;;16.83;68.30;99856.56;4974888;28;20517;-86
2023/08/27 03:00:28;;;;;;;5.03;2.90;;;16.20;99.90;;;16.83;67.96;99854.69;4991431;28;20101;-86
2023/08/27 03:02:57;;;;;;;8.43;3.53;;;16.20;99.90;;;16.83;68.14;99845.78;4983564;28;20695;-88
2023/08/27 03:05:24;;;;;;;5.95;3.05;;;16.20;99.90;;;16.83;67.93;99848.50;4975803;28;20046;-88
2023/08/27 03:07:51;;;;;;;6.65;3.10;;;16.20;99.90;;;16.81;68.23;99845.28;5008172;28;20522;-86
2023/08/27 03:10:22;;;;;;;6.30;3.20;;;16.20;99.90;;;16.79;68.27;99855.47;4956051;28;20058;-88
2023/08/27 03:12:49;;;;;;;4.85;2.85;;;16.10;99.90;;;16.75;68.21;99854.44;4996134;28;20055;-88
2023/08/27 03:15:17;;;;;;;13.77;3.20;;;16.10;99.90;;;16.71;68.32;99860.34;4998399;28;20052;-88
2023/08/27 03:17:44;;;;;;;5.38;3.05;;;16.10;99.90;;;16.70;68.24;99861.38;4992377;28;20047;-88
2023/08/27 03:20:13;;;;;;;5.38;2.92;;;16.10;99.90;;;16.66;68.45;99857.59;4974007;28;20718;-88
2023/08/27 03:22:41;;;;;;;8.57;3.25;;;16.10;99.90;;;16.66;68.70;99857.59;4986870;28;20816;-88
2023/08/27 03:25:09;;;;;;;7.47;3.40;;;16.00;99.90;;;16.66;68.49;99844.13;4984772;28;20140;-86
2023/08/27 03:27:36;;;;;;;5.90;2.90;;;16.00;99.90;;;16.64;68.67;99857.06;4981177;28;20137;-86
2023/08/27 03:30:07;;;;;;;7.35;3.40;;;16.00;99.90;;;16.62;68.22;99853.81;4975247;28;20474;-88
2023/08/27 03:32:34;;;;;;;8.88;3.05;;;16.00;99.90;;;16.63;68.28;99849.22;4959972;28;20042;-86
2023/08/27 03:35:02;;;;;;;8.85;3.30;;;16.00;99.90;;;16.62;68.11;99840.34;4975290;28;20038;-86
2023/08/27 03:37:31;;;;;;;6.43;2.95;;;16.00;99.90;;;16.62;68.23;99844.94;5001401;28;20050;-86
2023/08/27 03:40:00;;;;;;;4.93;2.85;;;16.00;99.90;;;16.63;68.30;99835.78;5002062;28;20097;-88
2023/08/27 03:42:28;;;;;;;4.78;2.70;;;16.00;99.90;;;16.63;68.32;99850.03;4989309;28;20070;-88
2023/08/27 03:44:55;;;;;;;6.45;3.00;;;16.00;99.90;;;16.63;68.26;99857.31;4974805;28;20057;-86
2023/08/27 03:47:23;;;;;;;7.13;3.13;;;16.00;99.90;;;16.63;68.19;99858.13;4983452;28;20459;-86
2023/08/27 03:49:50;;;;;;;7.40;2.70;;;16.00;99.90;;;16.62;68.11;99856.50;4999393;28;20100;-85
2023/08/27 03:52:18;;;;;;;6.22;2.80;;;16.00;99.90;;;16.63;68.11;99847.34;4964576;28;20046;-86
2023/08/27 03:54:47;;;;;;;5.38;2.58;;;16.00;99.90;;;16.64;68.34;99832.84;4984723;28;20137;-88
2023/08/27 03:57:14;;;;;;;7.20;2.63;;;16.00;99.90;;;16.64;68.20;99838.22;4981189;28;20069;-86
2023/08/27 03:59:42;;;;;;;6.68;2.80;;;16.00;99.90;;;16.63;68.30;99855.44;4979994;28;20070;-86
2023/08/27 04:02:09;;;;;;;5.40;2.75;;;16.00;99.90;;;16.63;68.43;99849.22;4990047;28;20455;-86
2023/08/27 04:04:37;;;;;;;6.80;2.63;;;16.00;99.90;;;16.64;68.41;99840.06;5000465;28;20038;-86
2023/08/27 04:07:05;;;;;;;7.10;2.92;;;16.00;99.90;;;16.65;67.99;99833.63;4985291;28;20077;-86
2023/08/27 04:09:33;;;;;;;4.57;2.13;;;16.00;99.90;;;16.64;68.11;99832.00;5006976;28;20047;-86
2023/08/27 04:12:03;;;;;;;5.68;2.50;;;16.00;99.90;;;16.61;68.37;99827.16;4994265;28;20044;-86
2023/08/27 04:14:30;;;;;;;5.97;2.75;;;16.00;99.90;;;16.61;68.46;99835.25;5001263;28;20042;-86
2023/08/27 04:16:57;;;;;;;5.68;2.50;;;16.00;99.90;;;16.64;68.53;99840.06;4974963;28;20050;-86
2023/08/27 04:19:25;;;;;;;4.78;2.40;;;16.00;99.90;;;16.61;68.47;99836.03;4974761;28;20074;-86
2023/08/27 04:21:53;;;;;;;6.93;2.40;;;16.00;99.90;;;16.59;68.43;99840.06;4979557;28;20050;-86
2023/08/27 04:24:20;;;;;;;5.57;2.50;;;16.00;99.90;;;16.59;68.58;99845.44;4995430;28;20569;-86
2023/08/27 04:26:48;;;;;;;6.97;2.50;;;16.00;99.90;;;16.59;68.71;99829.31;4998318;28;20046;-86
2023/08/27 04:29:17;;;;;;;5.07;2.08;;;16.00;99.90;;;16.63;68.69;99833.88;4991060;28;20840;-86
2023/08/27 04:31:44;;;;;;;4.80;2.13;;;16.00;99.90;;;16.64;68.81;99838.22;4991997;28;20057;-86
2023/08/27 04:34:12;;;;;;;4.15;2.20;;;16.00;99.90;;;16.66;68.98;99840.63;5002086;28;20491;-86
2023/08/27 04:36:39;;;;;;;5.20;2.47;;;16.00;99.90;;;16.67;69.17;99836.88;4986950;28;20125;-86
2023/08/27 04:39:07;;;;;;;4.30;2.25;;;16.00;99.90;;;16.68;69.46;99838.47;4994430;28;20050;-86
2023/08/27 04:41:35;;;;;;;5.68;2.22;;;16.10;99.90;;;16.71;69.61;99832.56;4984449;28;20038;-86
2023/08/27 04:44:04;;;;;;;3.83;2.33;;;16.10;99.90;;;16.71;69.50;99829.88;4994179;28;20133;-86
2023/08/27 04:46:34;;;;;;;6.25;2.33;;;16.10;99.90;;;16.70;69.75;99837.16;4978219;28;20049;-86
2023/08/27 04:49:01;;;;;;;4.25;2.10;;;16.10;99.90;;;16.73;70.06;99843.91;4986181;28;20439;-86
2023/08/27 04:51:29;;;;;;;6.72;2.03;;;16.20;99.90;;;16.74;70.44;99840.16;5003649;28;20049;-86
2023/08/27 04:53:56;;;;;;;5.18;2.10;;;16.20;99.90;;;16.75;70.60;99840.97;4994571;28;20108;-86
2023/08/27 04:56:24;;;;;;;4.25;2.10;;;16.20;99.90;;;16.74;70.85;99840.16;4984788;28;20463;-86
2023/08/27 04:58:51;;;;;;;5.50;2.30;;;16.20;99.90;;;16.75;71.14;99835.56;4977784;28;20137;-86
2023/08/27 05:01:18;;;;;;;3.42;2.00;;;16.20;99.90;;;16.78;71.03;99853.88;4985877;28;20463;-86
2023/08/27 05:03:47;;;;;;;8.13;2.90;;;16.20;99.90;;;16.78;71.17;99837.72;4985857;28;20128;-87
2023/08/27 05:06:14;;;;;;;5.03;2.03;;;16.20;99.90;;;16.77;71.24;99842.28;4983512;28;20048;-86
2023/08/27 05:08:42;;;;;;;5.90;2.20;;;16.20;99.90;;;16.77;71.83;99844.97;4972869;28;20042;-86
2023/08/27 05:11:10;;;;;;;6.43;2.03;;;16.30;99.90;;;16.76;71.84;99835.28;4994149;28;20052;-86
2023/08/27 05:13:38;;;;;;;5.30;2.35;;;16.30;99.90;;;16.78;72.16;99838.50;4981576;28;20042;-86
2023/08/27 05:16:06;;;;;;;6.05;1.98;;;16.30;99.90;;;16.82;72.02;99839.59;5157681;23;20452;-85
2023/08/27 05:18:34;;;;;;;5.18;1.85;;;16.30;99.90;;;16.83;71.99;99845.78;5028909;28;20063;-85
2023/08/27 05:21:04;;;;;;;4.57;1.95;;;16.30;99.90;;;16.86;71.75;99843.38;5047462;28;20049;-85
2023/08/27 05:23:31;;;;;;;8.50;2.15;;;16.40;99.90;;;16.89;71.65;99844.75;5043142;28;20041;-85
2023/08/27 05:25:59;;;;;;;4.38;2.03;;;16.40;99.90;;;16.90;71.81;99836.38;5060955;28;20136;-85
2023/08/27 05:28:26;;;;;;;5.28;2.30;;;16.40;99.90;;;16.89;71.13;99845.56;5044503;28;20563;-85
2023/08/27 05:30:54;;;;;;;4.97;2.20;;;16.40;99.90;;;16.89;71.33;99856.31;5030678;28;20441;-85
2023/08/27 05:33:21;;;;;;;3.42;1.80;;;16.50;99.90;;;16.86;71.22;99846.06;5033712;28;20067;-86
2023/08/27 05:35:50;;;;;;;6.10;2.00;;;16.40;99.90;;;16.86;71.29;99848.78;5048524;28;20517;-87
2023/08/27 05:38:18;;;;;;;5.50;2.00;;;16.40;99.90;;;16.89;71.61;99861.72;5053376;28;20519;-86
2023/08/27 05:40:46;;;;;;;5.35;2.03;;;16.50;99.90;;;16.91;71.78;99850.66;5035181;28;20041;-86
2023/08/27 05:43:13;;;;;;;6.72;2.10;;;16.50;99.90;;;16.91;71.33;99856.03;5035004;28;20417;-87
2023/08/27 05:45:40;;;;;;;4.65;1.95;;;16.50;99.90;;;16.83;71.74;99867.34;5035850;28;20083;-87
2023/08/27 05:48:08;;;;;;;4.78;1.90;;;16.40;99.90;;;16.80;72.01;99862.50;5044245;28;20044;-86
2023/08/27 05:50:36;;;;;;;3.72;1.95;;;16.40;99.90;;;16.80;71.88;99863.31;5033511;28;20034;-86
2023/08/27 05:53:05;;;;;;;4.07;1.83;;;16.40;99.90;;;16.85;72.30;99862.50;5058902;28;20048;-86
2023/08/27 05:55:35;;;;;;;9.25;2.28;;;16.40;99.90;;;16.82;72.70;99855.75;5052043;28;20048;-87
2023/08/27 05:58:04;;;;;;;6.72;2.35;;;16.40;99.90;;;16.84;73.00;99861.72;5044967;28;20140;-87
2023/08/27 06:00:32;;;;;;;5.28;2.20;;;16.40;99.90;;;16.85;72.88;99860.63;5041959;28;20048;-87
2023/08/27 06:02:59;;;;;;;4.07;2.40;;;16.40;99.90;;;16.86;73.31;99854.16;5036288;28;20045;-87
2023/08/27 06:05:27;;;;;;;7.40;2.65;;;16.40;99.90;;;16.90;73.72;99851.75;5035078;28;20052;-86
2023/08/27 06:07:54;;;;;;;8.23;2.28;;;16.50;99.90;;;16.92;73.58;99858.47;5044231;28;20048;-87
2023/08/27 06:10:22;;;;;;;5.13;2.10;;;16.50;99.90;;;16.94;73.70;99864.41;5034051;28;20098;-87
2023/08/27 06:12:51;;;;;;;4.20;2.00;;;16.50;99.90;;;16.96;73.96;99856.06;5043099;28;20047;-87
2023/08/27 06:15:18;;;;;;;4.57;2.20;;;16.50;99.90;;;16.96;74.29;99856.84;5043155;28;20041;-87
2023/08/27 06:17:45;;;;;;;4.43;2.22;;;16.50;99.90;;;16.97;74.60;99861.16;5035005;28;20383;-87
2023/08/27 06:20:13;;;;;;;3.50;1.92;;;16.50;99.90;;;16.99;74.64;99869.81;5042424;28;20505;-87
2023/08/27 06:22:40;;;;;;;5.03;2.20;;;16.60;99.90;;;17.01;74.02;99892.97;5043269;28;20133;-87
2023/08/27 06:25:08;;;;;;;5.07;2.22;;;16.60;99.90;;;17.01;74.27;99884.88;5034793;28;20094;-87
2023/08/27 06:27:36;;;;;;;8.30;2.72;;;16.60;99.90;;;16.99;74.51;99885.97;5037673;28;20126;-87
2023/08/27 06:30:06;;;;;;;5.05;2.20;;;16.60;99.90;;;17.01;74.55;99879.50;5060501;28;20099;-87
2023/08/27 06:32:34;;;;;;;4.97;2.20;;;16.60;99.90;;;17.03;74.72;99875.47;5036744;28;20756;-87
2023/08/27 06:35:03;;;;;;;6.95;2.33;;;16.60;99.90;;;17.05;74.94;99877.88;5037382;28;20350;-87
2023/08/27 06:37:30;;;;;;;5.88;2.35;;;16.60;99.90;;;17.07;74.81;99870.34;5043074;28;20045;-87
2023/08/27 06:39:57;;;;;;;6.20;2.40;;;16.70;99.90;;;17.11;75.19;99876.81;5035651;28;20064;-84
2023/08/27 06:42:25;;;;;;;5.03;2.40;;;16.70;99.90;;;17.11;75.36;99885.69;5042195;28;20041;-85
2023/08/27 06:44:53;;;;;;;7.20;2.25;;;16.70;99.90;;;17.13;75.70;99880.03;5033479;28;20881;-85
2023/08/27 06:47:22;;;;;;;5.75;2.38;;;16.70;99.90;;;17.13;75.66;99888.13;5042890;28;20036;-85
2023/08/27 06:49:51;;;;;;;5.82;2.80;;;16.80;99.90;;;17.12;75.75;99890.00;5037617;28;20052;-85
2023/08/27 06:52:19;;;;;;;4.38;2.22;;;16.70;99.90;;;17.14;76.09;99895.16;5044040;28;20063;-85
2023/08/27 06:54:46;;;;;;;7.38;2.65;;;16.70;99.90;;;17.15;76.17;99888.66;5037457;28;20398;-84
2023/08/27 06:57:13;;;;;;;4.55;2.53;;;16.70;99.90;;;17.14;76.20;99895.16;5055351;28;20528;-83
2023/08/27 06:59:43;;;;;;;5.15;2.78;;;16.80;99.90;;;17.14;76.25;99892.44;5036656;28;20045;-83
2023/08/27 07:02:13;;;;;;;8.80;2.90;;;16.80;99.90;;;17.15;76.06;99892.16;5039991;28;20053;-83
2023/08/27 07:04:43;;;;;;;7.82;2.70;;;16.80;99.90;;;17.15;76.00;99894.88;5039138;28;20033;-83
2023/08/27 07:07:10;;;;;;;5.15;2.58;;;16.80;99.90;;;17.18;75.93;99896.22;5042979;28;20067;-83
2023/08/27 07:09:38;;;;;;;9.85;2.40;;;16.80;99.90;;;17.24;76.24;99889.75;5039700;28;20041;-84
2023/08/27 07:12:07;;;;;;;5.35;2.70;;;16.90;99.90;;;17.32;76.37;99883.81;5057244;28;20091;-84
2023/08/27 07:14:34;;;;;;;4.88;3.08;;;17.00;99.90;;;17.42;76.53;99896.47;5040622;28;20116;-84
2023/08/27 07:17:01;;;;;;;9.07;3.60;;;17.10;99.90;;;17.51;76.73;99898.34;5045592;28;20071;-83
2023/08/27 07:19:29;;;;;;;6.20;2.80;;;17.30;99.90;;;17.57;76.95;99909.13;5047789;28;20052;-84
2023/08/27 07:21:57;;;;;;;6.85;2.55;;;17.30;99.90;;;17.57;76.65;99911.81;5043354;28;20068;-84
2023/08/27 07:24:26;;;;;;;5.85;2.92;;;17.30;99.90;;;17.57;76.17;99901.03;5038574;28;20072;-84
2023/08/27 07:26:53;;;;;;;5.35;2.78;;;17.30;99.90;;;17.54;75.73;99896.22;5038086;28;20773;-86
2023/08/27 07:29:21;;;;;;;7.80;2.97;;;17.30;99.90;;;17.50;75.84;99895.94;5015905;28;20127;-84
2023/08/27 07:31:48;;;;;;;5.55;2.70;;;17.30;99.90;;;17.49;75.71;99886.25;5059311;28;20048;-86
2023/08/27 07:34:16;;;;;;;5.25;2.92;;;17.20;99.90;;;17.52;76.11;99891.09;5041547;28;20048;-85
2023/08/27 07:36:43;;;;;;;5.43;2.92;;;17.30;99.90;;;17.56;75.65;99888.66;5034405;28;20051;-85
2023/08/27 07:39:12;;;;;;;4.95;2.88;;;17.30;99.90;;;17.67;75.86;99891.06;5038042;28;20045;-83
2023/08/27 07:41:41;;;;;;;5.22;3.05;;;17.40;99.90;;;17.80;75.57;99894.31;5031672;28;20049;-82
2023/08/27 07:44:09;;;;;;;7.28;3.45;;;17.60;99.90;;;17.88;76.41;99888.38;5023628;28;20069;-86
2023/08/27 07:46:36;;;;;;;10.05;3.80;;;17.70;99.90;;;17.89;76.28;99898.88;5021500;28;20037;-87
2023/08/27 07:49:05;;;;;;;7.38;3.65;;;17.80;99.90;;;17.89;76.28;99898.88;5031263;28;20208;-87
2023/08/27 07:51:33;;;;;;;6.53;3.40;;;17.80;99.90;;;17.87;75.66;99884.84;5035725;28;20044;-86
2023/08/27 07:54:00;;;;;;;8.77;3.72;;;17.80;99.90;;;17.95;74.82;99891.56;5035978;28;20064;-86
2023/08/27 07:56:29;;;;;;;6.10;3.55;;;17.80;99.90;;;17.99;74.51;99879.16;5021791;28;20060;-87
2023/08/27 07:58:57;;;;;;;6.68;4.15;;;17.80;99.90;;;18.05;74.23;99880.75;5023596;28;20136;-86
2023/08/27 08:01:25;;;;;;;7.78;4.13;;;17.90;99.90;;;18.06;74.45;99876.19;5021674;28;20803;-87
2023/08/27 08:03:52;;;;;;;9.07;4.13;;;17.90;99.90;;;18.18;73.65;99879.34;5030852;28;20057;-87
2023/08/27 08:06:19;;;;;;;6.50;4.50;;;18.10;99.90;;;18.19;74.33;99889.88;5038961;28;20151;-86
2023/08/27 08:08:47;;;;;;;7.18;4.53;;;18.20;99.90;;;18.17;74.02;99891.25;5026353;28;20041;-86
2023/08/27 08:11:14;;;;;;;7.07;3.83;;;18.10;99.90;;;18.16;73.96;99895.03;5061454;28;20037;-86
2023/08/27 08:13:44;;;;;;;5.85;4.60;;;18.10;99.90;;;18.14;74.51;99902.56;5054124;28;20068;-86
2023/08/27 08:16:12;;;;;;;7.13;4.50;;;18.00;99.90;;;18.01;73.32;99903.97;5036324;28;20498;-86
2023/08/27 08:18:39;;;;;;;10.32;5.13;;;17.90;99.90;;;18.03;73.84;99899.09;5037251;28;20131;-88
2023/08/27 08:21:07;;;;;;;6.75;4.60;;;17.90;99.90;;;18.06;74.75;99911.25;5038804;28;20041;-89
2023/08/27 08:23:34;;;;;;;9.73;4.78;;;17.90;99.90;;;18.09;73.65;99908.78;5039299;28;20132;-89
2023/08/27 08:26:02;;;;;;;7.63;5.03;;;17.90;99.90;;;18.07;71.40;99915.56;5040616;28;20057;-88
2023/08/27 08:28:29;;;;;;;7.78;4.82;;;17.90;99.90;;;18.06;72.76;99917.47;5032630;28;20144;-89
2023/08/27 08:30:58;;;;;;;8.18;4.95;;;17.90;99.90;;;18.10;72.33;99923.09;5040126;28;20052;-88
2023/08/27 08:33:25;;;;;;;11.45;5.07;;;18.00;99.90;;;18.18;72.13;99919.84;5028457;28;20045;-87
2023/08/27 08:35:52;;;;;;;7.32;4.10;;;18.10;99.90;;;18.23;73.31;99919.81;5026755;28;20037;-88
2023/08/27 08:38:21;;;;;;;8.75;4.20;;;18.10;99.90;;;18.23;73.05;99911.72;5032970;28;20045;-86
2023/08/27 08:40:57;;;;;;;6.10;3.72;;;18.20;99.90;;;18.27;72.66;99907.41;5044494;28;20420;-87
2023/08/27 08:43:31;;;;;;;8.70;4.28;;;18.30;99.90;;;18.36;72.81;99913.84;5038019;28;20048;-86
2023/08/27 08:46:04;;;;;;;5.10;3.20;;;18.40;99.90;;;18.38;72.34;99906.25;5044927;28;20095;-86
2023/08/27 08:48:38;;;;;;;5.95;3.00;;;18.40;99.90;;;18.41;72.72;99905.72;5040329;28;20382;-86
2023/08/27 08:51:07;;;;;;;6.72;3.22;;;18.40;99.90;;;18.45;73.48;99903.28;5038200;28;20056;-86
2023/08/27 08:53:40;;;;;;;6.63;2.45;;;18.50;99.90;;;18.45;72.08;99909.50;5047103;28;20067;-86
2023/08/27 08:56:20;;;;;;;5.28;3.00;;;18.40;99.90;;;18.32;71.04;99901.97;5053422;28;20033;-86
2023/08/27 08:58:55;;;;;;;4.35;2.83;;;18.40;99.90;;;18.36;71.63;99908.44;5047212;28;20123;-86
2023/08/27 09:01:25;;;;;;;7.93;3.70;;;18.40;99.90;;;18.29;69.39;99899.81;5045759;28;20104;-86
2023/08/27 09:03:53;;;;;;;8.25;3.38;;;18.30;99.90;;;18.37;71.16;99903.84;5034133;28;20079;-86
2023/08/27 09:06:21;;;;;;;6.32;3.03;;;18.30;99.90;;;18.44;71.24;99898.94;5029262;28;20055;-86
2023/08/27 09:08:50;;;;;;;6.63;3.10;;;18.40;99.90;;;18.43;71.41;99900.03;5039012;28;20602;-86
2023/08/27 09:11:19;;;;;;;6.10;2.47;;;18.40;99.90;;;18.44;70.93;99913.25;5035023;28;20076;-85
2023/08/27 09:13:47;;;;;;;5.15;2.75;;;18.40;99.90;;;18.45;71.83;99906.78;5034828;28;20421;-85
2023/08/27 09:16:14;;;;;;;7.03;2.47;;;18.40;99.90;;;18.41;68.99;99919.22;5048950;28;20282;-85
2023/08/27 09:18:42;;;;;;;6.72;2.35;;;18.40;99.90;;;18.40;70.15;99916.81;5036775;28;20041;-85
2023/08/27 09:21:10;;;;;;;6.60;2.40;;;18.40;99.90;;;18.39;69.08;99920.56;5042151;28;20269;-84
2023/08/27 09:23:38;;;;;;;4.20;2.30;;;18.40;99.90;;;18.33;68.91;99922.50;5043028;28;20044;-87
2023/08/27 09:26:06;;;;;;;5.03;2.40;;;18.40;99.90;;;18.33;69.42;99917.09;5055245;28;20052;-86
2023/08/27 09:28:34;;;;;;;6.57;2.65;;;18.40;99.90;;;18.38;69.13;99925.16;5038422;28;20041;-85
2023/08/27 09:31:02;;;;;;;4.95;2.53;;;18.40;99.90;;;18.42;68.64;99925.44;5038502;28;20408;-85
2023/08/27 09:33:40;;;;;;;4.55;2.05;;;18.50;99.90;;;18.41;68.86;99921.13;5055130;28;20045;-87
2023/08/27 09:36:12;;;;;;;4.95;2.33;;;18.40;99.90;;;18.39;68.31;99904.38;5050232;28;20045;-87
2023/08/27 09:38:40;;;;;;;6.15;2.30;;;18.40;99.90;;;18.39;68.89;99897.06;5044335;28;20452;-87
2023/08/27 09:41:15;;;;;;;5.43;2.30;;;18.40;99.90;;;18.42;68.56;99893.84;5035442;28;20052;-88
2023/08/27 09:43:47;;;;;;;5.78;2.42;;;18.40;99.90;;;18.44;68.98;99890.84;5040061;28;20045;-88
2023/08/27 09:46:17;;;;;;;4.47;2.30;;;18.50;99.90;;;18.55;70.68;99880.81;5054026;28;20045;-88
2023/08/27 09:48:45;;;;;;;5.68;2.10;;;18.60;99.90;;;18.64;69.14;99879.13;5035656;28;20785;-87
2023/08/27 09:51:18;;;;;;;4.50;2.53;;;18.70;99.90;;;18.76;70.10;99883.16;5021804;28;20080;-86
2023/08/27 09:53:46;;;;;;;7.38;2.92;;;18.90;99.90;;;18.92;69.87;99880.34;5031705;28;20103;-87
2023/08/27 09:56:13;;;;;;;5.05;2.83;;;19.10;99.90;;;18.97;68.88;99877.59;5052821;28;20076;-86
2023/08/27 09:58:40;;;;;;;5.40;2.85;;;19.10;99.90;;;18.98;69.40;99863.00;5055193;28;20065;-88
2023/08/27 10:01:09;;;;;;;5.72;2.60;;;19.20;99.90;;;19.07;69.03;99857.78;5045561;28;20041;-86
2023/08/27 10:03:36;;;;;;;5.63;2.97;;;19.30;99.90;;;19.17;68.44;99861.22;5039921;28;20055;-87
2023/08/27 10:06:04;;;;;;;4.97;2.40;;;19.40;99.90;;;19.22;69.35;99857.66;5054446;28;20049;-87
2023/08/27 10:08:45;;;;;;;4.20;2.22;;;19.50;99.90;;;19.24;66.75;99850.09;5016860;28;20041;-87
2023/08/27 10:11:14;;;;;;;5.93;2.00;;;19.50;99.90;;;19.34;68.74;99851.91;5028016;28;20145;-87
2023/08/27 10:13:44;;;;;;;7.78;2.53;;;19.60;99.90;;;19.30;67.31;99857.06;5035035;28;20049;-87
2023/08/27 10:16:14;;;;;;;6.13;2.30;;;19.50;99.90;;;19.23;66.87;99840.38;5034022;28;20072;-87
2023/08/27 10:18:43;;;;;;;6.22;2.40;;;19.50;99.90;;;19.30;67.78;99848.97;5051014;28;20044;-87
2023/08/27 10:21:10;;;;;;;6.25;2.55;;;19.50;99.90;;;19.41;67.18;99845.06;5038385;28;20577;-87
2023/08/27 10:23:41;;;;;;;6.05;2.70;;;19.60;99.90;;;19.43;66.75;99844.78;5050440;28;20060;-87